sensor_id;sensor_type;location;lat;lon;timestamp;temperature;humidity
13148;DHT22;6639;50.956;4.242;2022-11-20T00:00:17;12.70;99.90
13148;DHT22;6639;50.956;4.242;2022-11-20T00:02:44;12.50;99.90
13148;DHT22;6639;50.956;4.242;2022-11-20T00:05:11;12.60;99.90
13148;DHT22;6639;50.956;4.242;2022-11-20T00:07:38;12.80;99.90
13148;DHT22;6639;50.956;4.242;2022-11-20T00:10:05;13.20;99.90
13148;DHT22;6639;50.956;4.242;2022-11-20T00:12:34;13.20;99.90
13148;DHT22;6639;50.956;4.242;2022-11-20T00:15:01;13.30;99.90
13148;DHT22;6639;50.956;4.242;2022-11-20T00:17:27;13.50;99.90
13148;DHT22;6639;50.956;4.242;2022-11-20T00:19:54;13.40;99.90
13148;DHT22;6639;50.956;4.242;2022-11-20T00:22:21;13.50;99.90
13148;DHT22;6639;50.956;4.242;2022-11-20T00:24:48;13.40;99.90
13148;DHT22;6639;50.956;4.242;2022-11-20T00:27:15;13.50;99.90
13148;DHT22;6639;50.956;4.242;2022-11-20T00:29:43;13.50;99.90
13148;DHT22;6639;50.956;4.242;2022-11-20T00:32:10;13.40;99.90
13148;DHT22;6639;50.956;4.242;2022-11-20T00:34:37;13.20;99.90
13148;DHT22;6639;50.956;4.242;2022-11-20T00:37:03;13.30;99.90
13148;DHT22;6639;50.956;4.242;2022-11-20T00:39:30;13.30;99.90
13148;DHT22;6639;50.956;4.242;2022-11-20T00:41:57;13.50;99.90
13148;DHT22;6639;50.956;4.242;2022-11-20T00:44:24;13.30;99.90
13148;DHT22;6639;50.956;4.242;2022-11-20T00:46:52;13.40;99.90
13148;DHT22;6639;50.956;4.242;2022-11-20T00:49:19;13.40;99.90
13148;DHT22;6639;50.956;4.242;2022-11-20T00:51:46;13.10;99.90
13148;DHT22;6639;50.956;4.242;2022-11-20T00:54:13;12.60;99.90
13148;DHT22;6639;50.956;4.242;2022-11-20T00:56:39;12.60;99.90
13148;DHT22;6639;50.956;4.242;2022-11-20T00:59:08;13.00;99.90
13148;DHT22;6639;50.956;4.242;2022-11-20T01:01:36;13.00;99.90
13148;DHT22;6639;50.956;4.242;2022-11-20T01:04:05;13.10;99.90
13148;DHT22;6639;50.956;4.242;2022-11-20T01:06:33;12.40;99.90
13148;DHT22;6639;50.956;4.242;2022-11-20T01:09:03;12.60;99.90
13148;DHT22;6639;50.956;4.242;2022-11-20T01:11:31;13.00;99.90
13148;DHT22;6639;50.956;4.242;2022-11-20T01:14:00;13.20;99.90
13148;DHT22;6639;50.956;4.242;2022-11-20T01:16:29;13.20;99.90
13148;DHT22;6639;50.956;4.242;2022-11-20T01:18:58;13.10;99.90
13148;DHT22;6639;50.956;4.242;2022-11-20T01:21:29;13.30;99.90
13148;DHT22;6639;50.956;4.242;2022-11-20T01:23:57;13.30;99.90
13148;DHT22;6639;50.956;4.242;2022-11-20T01:26:25;13.30;99.90
13148;DHT22;6639;50.956;4.242;2022-11-20T01:28:53;13.40;99.90
13148;DHT22;6639;50.956;4.242;2022-11-20T01:31:22;13.50;99.90
13148;DHT22;6639;50.956;4.242;2022-11-20T01:33:52;13.50;99.90
13148;DHT22;6639;50.956;4.242;2022-11-20T01:36:20;13.50;99.90
13148;DHT22;6639;50.956;4.242;2022-11-20T01:38:51;13.50;99.90
13148;DHT22;6639;50.956;4.242;2022-11-20T01:41:18;13.60;99.90
13148;DHT22;6639;50.956;4.242;2022-11-20T01:43:59;13.50;99.90
13148;DHT22;6639;50.956;4.242;2022-11-20T01:46:26;13.60;99.90
13148;DHT22;6639;50.956;4.242;2022-11-20T01:48:58;13.60;99.90
13148;DHT22;6639;50.956;4.242;2022-11-20T01:51:30;13.70;99.90
13148;DHT22;6639;50.956;4.242;2022-11-20T01:54:02;13.70;99.90
13148;DHT22;6639;50.956;4.242;2022-11-20T01:56:31;13.70;99.90
13148;DHT22;6639;50.956;4.242;2022-11-20T01:59:02;13.70;99.90
13148;DHT22;6639;50.956;4.242;2022-11-20T02:01:30;13.70;99.90
13148;DHT22;6639;50.956;4.242;2022-11-20T02:03:58;13.70;99.90
13148;DHT22;6639;50.956;4.242;2022-11-20T02:06:27;13.80;99.90
13148;DHT22;6639;50.956;4.242;2022-11-20T02:08:55;13.80;99.90
13148;DHT22;6639;50.956;4.242;2022-11-20T02:11:23;13.60;99.90
13148;DHT22;6639;50.956;4.242;2022-11-20T02:13:50;13.30;99.90
13148;DHT22;6639;50.956;4.242;2022-11-20T02:16:20;13.00;99.90
13148;DHT22;6639;50.956;4.242;2022-11-20T02:18:48;13.00;99.90
13148;DHT22;6639;50.956;4.242;2022-11-20T02:21:27;13.20;99.90
13148;DHT22;6639;50.956;4.242;2022-11-20T02:24:02;12.40;99.90
13148;DHT22;6639;50.956;4.242;2022-11-20T02:26:31;12.60;99.90
13148;DHT22;6639;50.956;4.242;2022-11-20T02:29:00;12.70;99.90
13148;DHT22;6639;50.956;4.242;2022-11-20T02:31:28;12.90;99.90
13148;DHT22;6639;50.956;4.242;2022-11-20T02:33:56;12.90;99.90
13148;DHT22;6639;50.956;4.242;2022-11-20T02:36:24;12.80;99.90
13148;DHT22;6639;50.956;4.242;2022-11-20T02:38:53;12.90;99.90
13148;DHT22;6639;50.956;4.242;2022-11-20T02:41:22;12.80;99.90
13148;DHT22;6639;50.956;4.242;2022-11-20T02:43:56;12.80;99.90
13148;DHT22;6639;50.956;4.242;2022-11-20T02:46:23;12.80;99.90
13148;DHT22;6639;50.956;4.242;2022-11-20T02:48:50;12.70;99.90
13148;DHT22;6639;50.956;4.242;2022-11-20T02:51:17;12.80;99.90
13148;DHT22;6639;50.956;4.242;2022-11-20T02:53:44;12.90;99.90
13148;DHT22;6639;50.956;4.242;2022-11-20T02:56:10;12.60;99.90
13148;DHT22;6639;50.956;4.242;2022-11-20T02:58:39;12.30;99.90
13148;DHT22;6639;50.956;4.242;2022-11-20T03:01:05;12.30;99.90
13148;DHT22;6639;50.956;4.242;2022-11-20T03:03:32;12.40;99.90
13148;DHT22;6639;50.956;4.242;2022-11-20T03:05:59;12.50;99.90
13148;DHT22;6639;50.956;4.242;2022-11-20T03:08:26;12.30;99.90
13148;DHT22;6639;50.956;4.242;2022-11-20T03:10:53;12.00;99.90
13148;DHT22;6639;50.956;4.242;2022-11-20T03:13:20;12.00;99.90
13148;DHT22;6639;50.956;4.242;2022-11-20T03:15:48;12.20;99.90
13148;DHT22;6639;50.956;4.242;2022-11-20T03:18:15;12.00;99.90
13148;DHT22;6639;50.956;4.242;2022-11-20T03:20:42;11.90;99.90
13148;DHT22;6639;50.956;4.242;2022-11-20T03:23:09;12.20;99.90
13148;DHT22;6639;50.956;4.242;2022-11-20T03:25:36;12.40;99.90
13148;DHT22;6639;50.956;4.242;2022-11-20T03:28:03;12.70;99.90
13148;DHT22;6639;50.956;4.242;2022-11-20T03:30:30;13.00;99.90
13148;DHT22;6639;50.956;4.242;2022-11-20T03:32:58;13.00;99.90
13148;DHT22;6639;50.956;4.242;2022-11-20T03:35:25;13.10;99.90
13148;DHT22;6639;50.956;4.242;2022-11-20T03:37:52;13.10;99.90
13148;DHT22;6639;50.956;4.242;2022-11-20T03:40:19;13.00;99.90
13148;DHT22;6639;50.956;4.242;2022-11-20T03:42:46;13.20;99.90
13148;DHT22;6639;50.956;4.242;2022-11-20T03:45:13;13.20;99.90
13148;DHT22;6639;50.956;4.242;2022-11-20T03:47:40;13.30;99.90
13148;DHT22;6639;50.956;4.242;2022-11-20T03:50:09;13.30;99.90
13148;DHT22;6639;50.956;4.242;2022-11-20T03:52:37;13.40;99.90
13148;DHT22;6639;50.956;4.242;2022-11-20T03:55:04;13.60;99.90
13148;DHT22;6639;50.956;4.242;2022-11-20T03:57:31;13.40;99.90
13148;DHT22;6639;50.956;4.242;2022-11-20T03:59:58;13.50;99.90
13148;DHT22;6639;50.956;4.242;2022-11-20T04:02:25;13.50;99.90
13148;DHT22;6639;50.956;4.242;2022-11-20T04:04:52;13.60;99.90
13148;DHT22;6639;50.956;4.242;2022-11-20T04:07:20;13.50;99.90
13148;DHT22;6639;50.956;4.242;2022-11-20T04:09:47;13.40;99.90
13148;DHT22;6639;50.956;4.242;2022-11-20T04:12:14;13.40;99.90
13148;DHT22;6639;50.956;4.242;2022-11-20T04:14:41;13.40;99.90
13148;DHT22;6639;50.956;4.242;2022-11-20T04:17:08;13.30;99.90
13148;DHT22;6639;50.956;4.242;2022-11-20T04:19:34;13.30;99.90
13148;DHT22;6639;50.956;4.242;2022-11-20T04:22:01;13.40;99.90
13148;DHT22;6639;50.956;4.242;2022-11-20T04:24:30;13.40;99.90
13148;DHT22;6639;50.956;4.242;2022-11-20T04:26:57;13.40;99.90
13148;DHT22;6639;50.956;4.242;2022-11-20T04:29:23;13.40;99.90
13148;DHT22;6639;50.956;4.242;2022-11-20T04:31:50;13.40;99.90
13148;DHT22;6639;50.956;4.242;2022-11-20T04:34:17;13.40;99.90
13148;DHT22;6639;50.956;4.242;2022-11-20T04:36:44;13.50;99.90
13148;DHT22;6639;50.956;4.242;2022-11-20T04:39:12;13.50;99.90
13148;DHT22;6639;50.956;4.242;2022-11-20T04:41:41;13.50;99.90
13148;DHT22;6639;50.956;4.242;2022-11-20T04:44:08;13.50;99.90
13148;DHT22;6639;50.956;4.242;2022-11-20T04:46:37;13.50;99.90
13148;DHT22;6639;50.956;4.242;2022-11-20T04:49:04;13.60;99.90
13148;DHT22;6639;50.956;4.242;2022-11-20T04:51:31;13.60;99.90
13148;DHT22;6639;50.956;4.242;2022-11-20T04:53:58;13.50;99.90
13148;DHT22;6639;50.956;4.242;2022-11-20T04:56:25;13.50;99.90
13148;DHT22;6639;50.956;4.242;2022-11-20T04:58:54;13.50;99.90
13148;DHT22;6639;50.956;4.242;2022-11-20T05:01:22;13.60;99.90
13148;DHT22;6639;50.956;4.242;2022-11-20T05:03:50;13.60;99.90
13148;DHT22;6639;50.956;4.242;2022-11-20T05:06:18;13.70;99.90
13148;DHT22;6639;50.956;4.242;2022-11-20T05:08:46;13.60;99.90
13148;DHT22;6639;50.956;4.242;2022-11-20T05:11:14;13.60;99.90
13148;DHT22;6639;50.956;4.242;2022-11-20T05:13:42;13.60;99.90
13148;DHT22;6639;50.956;4.242;2022-11-20T05:16:12;13.50;99.90
13148;DHT22;6639;50.956;4.242;2022-11-20T05:18:40;13.60;99.90
13148;DHT22;6639;50.956;4.242;2022-11-20T05:21:08;13.70;99.90
13148;DHT22;6639;50.956;4.242;2022-11-20T05:23:35;13.70;99.90
13148;DHT22;6639;50.956;4.242;2022-11-20T05:26:03;13.70;99.90
13148;DHT22;6639;50.956;4.242;2022-11-20T05:28:30;13.70;99.90
13148;DHT22;6639;50.956;4.242;2022-11-20T05:31:04;13.50;99.90
13148;DHT22;6639;50.956;4.242;2022-11-20T05:33:33;13.20;99.90
13148;DHT22;6639;50.956;4.242;2022-11-20T05:36:00;13.00;99.90
13148;DHT22;6639;50.956;4.242;2022-11-20T05:38:27;13.10;99.90
13148;DHT22;6639;50.956;4.242;2022-11-20T05:40:54;13.20;99.90
13148;DHT22;6639;50.956;4.242;2022-11-20T05:43:21;13.40;99.90
13148;DHT22;6639;50.956;4.242;2022-11-20T05:45:54;13.30;99.90
13148;DHT22;6639;50.956;4.242;2022-11-20T05:48:21;13.40;99.90
13148;DHT22;6639;50.956;4.242;2022-11-20T05:50:49;13.40;99.90
13148;DHT22;6639;50.956;4.242;2022-11-20T05:53:16;13.50;99.90
13148;DHT22;6639;50.956;4.242;2022-11-20T05:55:43;13.50;99.90
13148;DHT22;6639;50.956;4.242;2022-11-20T05:58:10;13.50;99.90
13148;DHT22;6639;50.956;4.242;2022-11-20T06:00:37;13.50;99.90
13148;DHT22;6639;50.956;4.242;2022-11-20T06:03:04;13.50;99.90
13148;DHT22;6639;50.956;4.242;2022-11-20T06:05:31;13.30;99.90
13148;DHT22;6639;50.956;4.242;2022-11-20T06:08:01;13.20;99.90
13148;DHT22;6639;50.956;4.242;2022-11-20T06:10:28;13.20;99.90
13148;DHT22;6639;50.956;4.242;2022-11-20T06:12:57;13.10;99.90
13148;DHT22;6639;50.956;4.242;2022-11-20T06:15:24;12.90;99.90
13148;DHT22;6639;50.956;4.242;2022-11-20T06:17:52;12.50;99.90
13148;DHT22;6639;50.956;4.242;2022-11-20T06:20:19;12.10;99.90
13148;DHT22;6639;50.956;4.242;2022-11-20T06:22:46;12.40;99.90
13148;DHT22;6639;50.956;4.242;2022-11-20T06:25:14;12.80;99.90
13148;DHT22;6639;50.956;4.242;2022-11-20T06:27:41;12.90;99.90
13148;DHT22;6639;50.956;4.242;2022-11-20T06:30:09;12.70;99.90
13148;DHT22;6639;50.956;4.242;2022-11-20T06:32:36;12.50;99.90
13148;DHT22;6639;50.956;4.242;2022-11-20T06:35:03;12.20;99.90
13148;DHT22;6639;50.956;4.242;2022-11-20T06:37:30;12.50;99.90
13148;DHT22;6639;50.956;4.242;2022-11-20T06:39:57;12.40;99.90
13148;DHT22;6639;50.956;4.242;2022-11-20T06:42:26;12.30;99.90
13148;DHT22;6639;50.956;4.242;2022-11-20T06:44:52;11.90;99.90
13148;DHT22;6639;50.956;4.242;2022-11-20T06:47:19;12.20;99.90
13148;DHT22;6639;50.956;4.242;2022-11-20T06:49:46;12.60;99.90
13148;DHT22;6639;50.956;4.242;2022-11-20T06:52:13;12.90;99.90
13148;DHT22;6639;50.956;4.242;2022-11-20T06:54:40;13.10;99.90
13148;DHT22;6639;50.956;4.242;2022-11-20T06:57:07;13.00;99.90
13148;DHT22;6639;50.956;4.242;2022-11-20T06:59:35;13.10;99.90
13148;DHT22;6639;50.956;4.242;2022-11-20T07:02:02;13.20;99.90
13148;DHT22;6639;50.956;4.242;2022-11-20T07:04:28;13.20;99.90
13148;DHT22;6639;50.956;4.242;2022-11-20T07:06:55;13.30;99.90
13148;DHT22;6639;50.956;4.242;2022-11-20T07:09:22;13.30;99.90
13148;DHT22;6639;50.956;4.242;2022-11-20T07:11:49;13.10;99.90
13148;DHT22;6639;50.956;4.242;2022-11-20T07:14:16;13.00;99.90
13148;DHT22;6639;50.956;4.242;2022-11-20T07:16:44;12.80;99.90
13148;DHT22;6639;50.956;4.242;2022-11-20T07:19:11;12.80;99.90
13148;DHT22;6639;50.956;4.242;2022-11-20T07:21:38;12.80;99.90
13148;DHT22;6639;50.956;4.242;2022-11-20T07:24:05;13.00;99.90
13148;DHT22;6639;50.956;4.242;2022-11-20T07:26:31;13.10;99.90
13148;DHT22;6639;50.956;4.242;2022-11-20T07:28:58;12.90;99.90
13148;DHT22;6639;50.956;4.242;2022-11-20T07:31:25;12.80;99.90
13148;DHT22;6639;50.956;4.242;2022-11-20T07:33:53;13.00;99.90
13148;DHT22;6639;50.956;4.242;2022-11-20T07:36:20;12.90;99.90
13148;DHT22;6639;50.956;4.242;2022-11-20T07:38:47;13.00;99.90
13148;DHT22;6639;50.956;4.242;2022-11-20T07:41:14;12.70;99.90
13148;DHT22;6639;50.956;4.242;2022-11-20T07:43:41;12.60;99.90
13148;DHT22;6639;50.956;4.242;2022-11-20T07:46:08;12.60;99.90
13148;DHT22;6639;50.956;4.242;2022-11-20T07:48:35;12.70;99.90
13148;DHT22;6639;50.956;4.242;2022-11-20T07:51:03;13.00;99.90
13148;DHT22;6639;50.956;4.242;2022-11-20T07:53:30;12.90;99.90
13148;DHT22;6639;50.956;4.242;2022-11-20T07:55:59;13.00;99.90
13148;DHT22;6639;50.956;4.242;2022-11-20T07:58:26;12.90;99.90
13148;DHT22;6639;50.956;4.242;2022-11-20T08:00:55;12.80;99.90
13148;DHT22;6639;50.956;4.242;2022-11-20T08:03:21;13.10;99.90
13148;DHT22;6639;50.956;4.242;2022-11-20T08:05:49;13.20;99.90
13148;DHT22;6639;50.956;4.242;2022-11-20T08:08:17;13.20;99.90
13148;DHT22;6639;50.956;4.242;2022-11-20T08:10:44;12.90;99.90
13148;DHT22;6639;50.956;4.242;2022-11-20T08:13:11;13.10;99.90
13148;DHT22;6639;50.956;4.242;2022-11-20T08:15:55;12.90;99.90
13148;DHT22;6639;50.956;4.242;2022-11-20T08:18:22;13.00;99.90
13148;DHT22;6639;50.956;4.242;2022-11-20T08:20:49;13.10;99.90
13148;DHT22;6639;50.956;4.242;2022-11-20T08:23:17;12.70;99.90
13148;DHT22;6639;50.956;4.242;2022-11-20T08:25:49;12.70;99.90
13148;DHT22;6639;50.956;4.242;2022-11-20T08:28:16;12.50;99.90
13148;DHT22;6639;50.956;4.242;2022-11-20T08:30:43;12.30;99.90
13148;DHT22;6639;50.956;4.242;2022-11-20T08:33:11;12.70;99.90
13148;DHT22;6639;50.956;4.242;2022-11-20T08:35:38;12.60;99.90
13148;DHT22;6639;50.956;4.242;2022-11-20T08:38:06;12.30;99.90
13148;DHT22;6639;50.956;4.242;2022-11-20T08:40:35;12.70;99.90
13148;DHT22;6639;50.956;4.242;2022-11-20T08:43:02;12.60;99.90
13148;DHT22;6639;50.956;4.242;2022-11-20T08:45:29;12.80;99.90
13148;DHT22;6639;50.956;4.242;2022-11-20T08:48:00;12.60;99.90
13148;DHT22;6639;50.956;4.242;2022-11-20T08:50:27;12.50;99.90
13148;DHT22;6639;50.956;4.242;2022-11-20T08:53:02;12.70;99.90
13148;DHT22;6639;50.956;4.242;2022-11-20T08:55:29;12.50;99.90
13148;DHT22;6639;50.956;4.242;2022-11-20T08:57:57;12.50;99.90
13148;DHT22;6639;50.956;4.242;2022-11-20T09:00:24;12.70;99.90
13148;DHT22;6639;50.956;4.242;2022-11-20T09:02:51;12.40;99.90
13148;DHT22;6639;50.956;4.242;2022-11-20T09:05:18;12.40;99.90
13148;DHT22;6639;50.956;4.242;2022-11-20T09:07:45;12.60;99.90
13148;DHT22;6639;50.956;4.242;2022-11-20T09:10:12;13.00;99.90
13148;DHT22;6639;50.956;4.242;2022-11-20T09:12:39;13.40;99.90
13148;DHT22;6639;50.956;4.242;2022-11-20T09:15:08;13.50;99.90
13148;DHT22;6639;50.956;4.242;2022-11-20T09:17:35;13.60;99.90
13148;DHT22;6639;50.956;4.242;2022-11-20T09:20:02;13.70;99.90
13148;DHT22;6639;50.956;4.242;2022-11-20T09:22:29;13.70;99.90
13148;DHT22;6639;50.956;4.242;2022-11-20T09:24:56;13.60;99.90
13148;DHT22;6639;50.956;4.242;2022-11-20T09:27:23;13.60;99.90
13148;DHT22;6639;50.956;4.242;2022-11-20T09:29:50;13.70;99.90
13148;DHT22;6639;50.956;4.242;2022-11-20T09:32:18;13.90;99.90
13148;DHT22;6639;50.956;4.242;2022-11-20T09:34:45;14.10;99.90
13148;DHT22;6639;50.956;4.242;2022-11-20T09:37:12;14.30;99.90
13148;DHT22;6639;50.956;4.242;2022-11-20T09:39:38;14.20;99.90
13148;DHT22;6639;50.956;4.242;2022-11-20T09:42:27;14.30;99.90
13148;DHT22;6639;50.956;4.242;2022-11-20T09:45:10;14.20;99.90
13148;DHT22;6639;50.956;4.242;2022-11-20T09:47:53;14.40;99.90
13148;DHT22;6639;50.956;4.242;2022-11-20T09:50:32;14.40;99.90
13148;DHT22;6639;50.956;4.242;2022-11-20T09:53:10;14.30;99.90
13148;DHT22;6639;50.956;4.242;2022-11-20T09:55:39;14.30;99.90
13148;DHT22;6639;50.956;4.242;2022-11-20T09:58:07;14.40;99.90
13148;DHT22;6639;50.956;4.242;2022-11-20T10:00:36;14.40;99.90
13148;DHT22;6639;50.956;4.242;2022-11-20T10:03:12;14.10;99.90
13148;DHT22;6639;50.956;4.242;2022-11-20T10:05:44;14.30;99.90
13148;DHT22;6639;50.956;4.242;2022-11-20T10:08:16;14.40;99.90
13148;DHT22;6639;50.956;4.242;2022-11-20T10:10:46;14.10;99.90
13148;DHT22;6639;50.956;4.242;2022-11-20T10:13:23;14.40;99.90
13148;DHT22;6639;50.956;4.242;2022-11-20T10:16:03;14.30;99.90
13148;DHT22;6639;50.956;4.242;2022-11-20T10:18:44;14.00;99.90
13148;DHT22;6639;50.956;4.242;2022-11-20T10:21:25;13.90;99.90
13148;DHT22;6639;50.956;4.242;2022-11-20T10:26:56;13.80;99.90
13148;DHT22;6639;50.956;4.242;2022-11-20T10:29:29;13.60;99.90
13148;DHT22;6639;50.956;4.242;2022-11-20T10:32:02;13.30;99.90
13148;DHT22;6639;50.956;4.242;2022-11-20T10:34:35;13.40;99.90
13148;DHT22;6639;50.956;4.242;2022-11-20T10:37:11;13.50;99.90
13148;DHT22;6639;50.956;4.242;2022-11-20T10:39:44;13.90;99.90
13148;DHT22;6639;50.956;4.242;2022-11-20T10:42:17;14.00;99.90
13148;DHT22;6639;50.956;4.242;2022-11-20T10:44:52;14.20;99.90
13148;DHT22;6639;50.956;4.242;2022-11-20T10:47:35;13.70;99.90
13148;DHT22;6639;50.956;4.242;2022-11-20T10:50:08;13.60;99.90
13148;DHT22;6639;50.956;4.242;2022-11-20T10:52:45;13.40;99.90
13148;DHT22;6639;50.956;4.242;2022-11-20T10:55:26;13.40;99.90
13148;DHT22;6639;50.956;4.242;2022-11-20T10:58:00;13.80;99.90
13148;DHT22;6639;50.956;4.242;2022-11-20T11:00:31;14.10;99.90
13148;DHT22;6639;50.956;4.242;2022-11-20T11:02:58;13.70;99.90
13148;DHT22;6639;50.956;4.242;2022-11-20T11:05:36;13.80;99.90
13148;DHT22;6639;50.956;4.242;2022-11-20T11:08:09;13.60;99.90
13148;DHT22;6639;50.956;4.242;2022-11-20T11:10:44;13.90;99.90
13148;DHT22;6639;50.956;4.242;2022-11-20T11:13:20;14.00;99.90
13148;DHT22;6639;50.956;4.242;2022-11-20T11:15:47;13.90;99.90
13148;DHT22;6639;50.956;4.242;2022-11-20T11:18:24;13.50;99.90
13148;DHT22;6639;50.956;4.242;2022-11-20T11:20:54;13.20;99.90
13148;DHT22;6639;50.956;4.242;2022-11-20T11:23:31;13.30;99.90
13148;DHT22;6639;50.956;4.242;2022-11-20T11:26:00;13.40;99.90
13148;DHT22;6639;50.956;4.242;2022-11-20T11:28:28;13.60;99.90
13148;DHT22;6639;50.956;4.242;2022-11-20T11:30:55;13.30;99.90
13148;DHT22;6639;50.956;4.242;2022-11-20T11:33:24;13.30;99.90
13148;DHT22;6639;50.956;4.242;2022-11-20T11:35:54;13.30;99.90
13148;DHT22;6639;50.956;4.242;2022-11-20T11:38:28;13.60;99.90
13148;DHT22;6639;50.956;4.242;2022-11-20T11:40:56;13.60;99.90
13148;DHT22;6639;50.956;4.242;2022-11-20T11:43:26;13.70;99.90
13148;DHT22;6639;50.956;4.242;2022-11-20T11:46:24;14.10;99.90
13148;DHT22;6639;50.956;4.242;2022-11-20T11:48:58;14.20;99.90
13148;DHT22;6639;50.956;4.242;2022-11-20T11:51:32;13.90;99.90
13148;DHT22;6639;50.956;4.242;2022-11-20T11:54:02;13.60;99.90
13148;DHT22;6639;50.956;4.242;2022-11-20T11:56:33;13.20;99.90
13148;DHT22;6639;50.956;4.242;2022-11-20T11:59:04;13.10;99.90
13148;DHT22;6639;50.956;4.242;2022-11-20T12:01:37;13.40;99.90
13148;DHT22;6639;50.956;4.242;2022-11-20T12:04:14;13.20;99.90
13148;DHT22;6639;50.956;4.242;2022-11-20T12:06:50;13.10;99.90
13148;DHT22;6639;50.956;4.242;2022-11-20T12:09:18;12.70;99.90
13148;DHT22;6639;50.956;4.242;2022-11-20T12:11:51;12.80;99.90
13148;DHT22;6639;50.956;4.242;2022-11-20T12:14:23;12.80;99.90
13148;DHT22;6639;50.956;4.242;2022-11-20T12:16:54;12.80;99.90
13148;DHT22;6639;50.956;4.242;2022-11-20T12:19:23;13.00;99.90
13148;DHT22;6639;50.956;4.242;2022-11-20T12:21:57;13.70;99.90
13148;DHT22;6639;50.956;4.242;2022-11-20T12:24:52;13.70;99.90
13148;DHT22;6639;50.956;4.242;2022-11-20T12:27:56;13.80;99.90
13148;DHT22;6639;50.956;4.242;2022-11-20T12:30:26;13.40;99.90
13148;DHT22;6639;50.956;4.242;2022-11-20T12:33:18;13.60;99.90
13148;DHT22;6639;50.956;4.242;2022-11-20T12:36:01;13.70;99.90
13148;DHT22;6639;50.956;4.242;2022-11-20T12:39:00;13.60;99.90
13148;DHT22;6639;50.956;4.242;2022-11-20T12:41:43;13.50;99.90
13148;DHT22;6639;50.956;4.242;2022-11-20T12:44:43;13.70;99.90
13148;DHT22;6639;50.956;4.242;2022-11-20T12:47:49;13.50;99.90
13148;DHT22;6639;50.956;4.242;2022-11-20T12:50:27;13.50;99.90
13148;DHT22;6639;50.956;4.242;2022-11-20T12:52:57;13.50;99.90
13148;DHT22;6639;50.956;4.242;2022-11-20T12:55:35;13.30;99.90
13148;DHT22;6639;50.956;4.242;2022-11-20T12:58:08;13.50;99.90
13148;DHT22;6639;50.956;4.242;2022-11-20T13:00:41;13.50;99.90
13148;DHT22;6639;50.956;4.242;2022-11-20T13:03:23;13.10;99.90
13148;DHT22;6639;50.956;4.242;2022-11-20T13:06:00;13.10;99.90
13148;DHT22;6639;50.956;4.242;2022-11-20T13:08:34;13.10;99.90
13148;DHT22;6639;50.956;4.242;2022-11-20T13:11:07;12.90;99.90
13148;DHT22;6639;50.956;4.242;2022-11-20T13:13:50;12.60;99.90
13148;DHT22;6639;50.956;4.242;2022-11-20T13:16:25;12.60;99.90
13148;DHT22;6639;50.956;4.242;2022-11-20T13:18:54;12.60;99.90
13148;DHT22;6639;50.956;4.242;2022-11-20T13:21:23;12.90;99.90
13148;DHT22;6639;50.956;4.242;2022-11-20T13:24:04;12.70;99.90
13148;DHT22;6639;50.956;4.242;2022-11-20T13:26:33;12.70;99.90
13148;DHT22;6639;50.956;4.242;2022-11-20T13:29:03;12.60;99.90
13148;DHT22;6639;50.956;4.242;2022-11-20T13:31:35;12.50;99.90
13148;DHT22;6639;50.956;4.242;2022-11-20T13:34:05;12.60;99.90
13148;DHT22;6639;50.956;4.242;2022-11-20T13:36:32;12.90;99.90
13148;DHT22;6639;50.956;4.242;2022-11-20T13:39:02;12.70;99.90
13148;DHT22;6639;50.956;4.242;2022-11-20T13:41:30;12.80;99.90
13148;DHT22;6639;50.956;4.242;2022-11-20T13:44:09;12.80;99.90
13148;DHT22;6639;50.956;4.242;2022-11-20T13:46:39;12.70;99.90
13148;DHT22;6639;50.956;4.242;2022-11-20T13:49:14;13.00;99.90
13148;DHT22;6639;50.956;4.242;2022-11-20T13:51:44;12.40;99.90
13148;DHT22;6639;50.956;4.242;2022-11-20T13:54:40;12.10;99.90
13148;DHT22;6639;50.956;4.242;2022-11-20T14:00:15;12.30;99.90
13148;DHT22;6639;50.956;4.242;2022-11-20T14:02:43;12.30;99.90
13148;DHT22;6639;50.956;4.242;2022-11-20T14:05:19;12.30;99.90
13148;DHT22;6639;50.956;4.242;2022-11-20T14:07:47;12.30;99.90
13148;DHT22;6639;50.956;4.242;2022-11-20T14:10:23;12.50;99.90
13148;DHT22;6639;50.956;4.242;2022-11-20T14:12:51;12.40;99.90
13148;DHT22;6639;50.956;4.242;2022-11-20T14:15:28;12.50;99.90
13148;DHT22;6639;50.956;4.242;2022-11-20T14:17:55;12.20;99.90
13148;DHT22;6639;50.956;4.242;2022-11-20T14:20:23;12.30;99.90
13148;DHT22;6639;50.956;4.242;2022-11-20T14:22:52;12.00;99.90
13148;DHT22;6639;50.956;4.242;2022-11-20T14:25:21;12.20;99.90
13148;DHT22;6639;50.956;4.242;2022-11-20T14:27:53;12.10;99.90
13148;DHT22;6639;50.956;4.242;2022-11-20T14:30:22;12.00;99.90
13148;DHT22;6639;50.956;4.242;2022-11-20T14:32:53;11.90;99.90
13148;DHT22;6639;50.956;4.242;2022-11-20T14:35:24;11.80;99.90
13148;DHT22;6639;50.956;4.242;2022-11-20T14:37:51;12.10;99.90
13148;DHT22;6639;50.956;4.242;2022-11-20T14:40:25;12.40;99.90
13148;DHT22;6639;50.956;4.242;2022-11-20T14:42:52;12.70;99.90
13148;DHT22;6639;50.956;4.242;2022-11-20T14:45:20;12.50;99.90
13148;DHT22;6639;50.956;4.242;2022-11-20T14:47:48;12.60;99.90
13148;DHT22;6639;50.956;4.242;2022-11-20T14:50:19;12.30;99.90
13148;DHT22;6639;50.956;4.242;2022-11-20T14:52:52;11.80;99.90
13148;DHT22;6639;50.956;4.242;2022-11-20T14:55:27;12.00;99.90
13148;DHT22;6639;50.956;4.242;2022-11-20T14:57:55;12.00;99.90
13148;DHT22;6639;50.956;4.242;2022-11-20T15:00:23;12.20;99.90
13148;DHT22;6639;50.956;4.242;2022-11-20T15:02:51;12.40;99.90
13148;DHT22;6639;50.956;4.242;2022-11-20T15:05:22;12.30;99.90
13148;DHT22;6639;50.956;4.242;2022-11-20T15:07:50;12.40;99.90
13148;DHT22;6639;50.956;4.242;2022-11-20T15:10:22;12.50;99.90
13148;DHT22;6639;50.956;4.242;2022-11-20T15:12:51;12.60;99.90
13148;DHT22;6639;50.956;4.242;2022-11-20T15:15:21;12.40;99.90
13148;DHT22;6639;50.956;4.242;2022-11-20T15:17:50;12.30;99.90
13148;DHT22;6639;50.956;4.242;2022-11-20T15:20:17;12.40;99.90
13148;DHT22;6639;50.956;4.242;2022-11-20T15:22:45;12.70;99.90
13148;DHT22;6639;50.956;4.242;2022-11-20T15:25:14;12.80;99.90
13148;DHT22;6639;50.956;4.242;2022-11-20T15:27:41;12.60;99.90
13148;DHT22;6639;50.956;4.242;2022-11-20T15:30:19;12.50;99.90
13148;DHT22;6639;50.956;4.242;2022-11-20T15:32:47;12.40;99.90
13148;DHT22;6639;50.956;4.242;2022-11-20T15:35:14;12.40;99.90
13148;DHT22;6639;50.956;4.242;2022-11-20T15:37:42;12.40;99.90
13148;DHT22;6639;50.956;4.242;2022-11-20T15:40:11;12.80;99.90
13148;DHT22;6639;50.956;4.242;2022-11-20T15:42:38;12.60;99.90
13148;DHT22;6639;50.956;4.242;2022-11-20T15:45:25;12.60;99.90
13148;DHT22;6639;50.956;4.242;2022-11-20T15:47:53;12.70;99.90
13148;DHT22;6639;50.956;4.242;2022-11-20T15:50:20;12.60;99.90
13148;DHT22;6639;50.956;4.242;2022-11-20T15:52:48;12.30;99.90
13148;DHT22;6639;50.956;4.242;2022-11-20T15:55:16;12.40;99.90
13148;DHT22;6639;50.956;4.242;2022-11-20T15:57:43;12.50;99.90
13148;DHT22;6639;50.956;4.242;2022-11-20T16:00:11;12.60;99.90
13148;DHT22;6639;50.956;4.242;2022-11-20T16:02:38;12.40;99.90
13148;DHT22;6639;50.956;4.242;2022-11-20T16:05:11;12.80;99.90
13148;DHT22;6639;50.956;4.242;2022-11-20T16:07:38;12.70;99.90